Map

Track Data

SID SEASON NUMBER BASIN SUBBASIN NAME ISO_TIME NATURE LAT LON WMO_WIND WMO_PRES WMO_AGENCY TRACK_TYPE DIST2LAND LANDFALL IFLAG USA_AGENCY USA_ATCF_ID USA_LAT USA_LON USA_RECORD USA_STATUS USA_WIND USA_PRES USA_SSHS USA_R34_NE USA_R34_SE USA_R34_SW USA_R34_NW USA_R50_NE USA_R50_SE USA_R50_SW USA_R50_NW USA_R64_NE USA_R64_SE USA_R64_SW USA_R64_NW USA_POCI USA_ROCI USA_RMW USA_EYE TOKYO_LAT TOKYO_LON TOKYO_GRADE TOKYO_WIND TOKYO_PRES TOKYO_R50_DIR TOKYO_R50_LONG TOKYO_R50_SHORT TOKYO_R30_DIR TOKYO_R30_LONG TOKYO_R30_SHORT TOKYO_LAND CMA_LAT CMA_LON CMA_CAT CMA_WIND CMA_PRES HKO_LAT HKO_LON HKO_CAT HKO_WIND HKO_PRES NEWDELHI_LAT NEWDELHI_LON NEWDELHI_GRADE NEWDELHI_WIND NEWDELHI_PRES NEWDELHI_CI NEWDELHI_DP NEWDELHI_POCI REUNION_LAT REUNION_LON REUNION_TYPE REUNION_WIND REUNION_PRES REUNION_TNUM REUNION_CI REUNION_RMW REUNION_R34_NE REUNION_R34_SE REUNION_R34_SW REUNION_R34_NW REUNION_R50_NE REUNION_R50_SE REUNION_R50_SW REUNION_R50_NW REUNION_R64_NE REUNION_R64_SE REUNION_R64_SW REUNION_R64_NW BOM_LAT BOM_LON BOM_TYPE BOM_WIND BOM_PRES BOM_TNUM BOM_CI BOM_RMW BOM_R34_NE BOM_R34_SE BOM_R34_SW BOM_R34_NW BOM_R50_NE BOM_R50_SE BOM_R50_SW BOM_R50_NW BOM_R64_NE BOM_R64_SE BOM_R64_SW BOM_R64_NW BOM_ROCI BOM_POCI BOM_EYE BOM_POS_METHOD BOM_PRES_METHOD NADI_LAT NADI_LON NADI_CAT NADI_WIND NADI_PRES WELLINGTON_LAT WELLINGTON_LON WELLINGTON_WIND WELLINGTON_PRES DS824_LAT DS824_LON DS824_STAGE DS824_WIND DS824_PRES TD9636_LAT TD9636_LON TD9636_STAGE TD9636_WIND TD9636_PRES TD9635_LAT TD9635_LON TD9635_WIND TD9635_PRES TD9635_ROCI NEUMANN_LAT NEUMANN_LON NEUMANN_CLASS NEUMANN_WIND NEUMANN_PRES MLC_LAT MLC_LON MLC_CLASS MLC_WIND MLC_PRES USA_GUST BOM_GUST BOM_GUST_PER REUNION_GUST REUNION_GUST_PER USA_SEAHGT USA_SEARAD_NE USA_SEARAD_SE USA_SEARAD_SW USA_SEARAD_NW STORM_SPEED STORM_DIR
1976007S11054 1976 2 SI MM CLOTILDE 1976-01-07 06:00:00 TS -11.0000 54.1000 reunion main 509 499 O________OO___ jtwc_sh SH081976 -11.0000 54.1000 -1 -11.0000 54.1000 TC 25 -11.0000 54.1000 7 2 273
1976007S11054 1976 2 SI MM CLOTILDE 1976-01-07 09:00:00 TS -10.9943 53.9983 main 499 489 P________PP___ SH081976 -11.0000 54.0100 -1 -11.0000 54.0100 TC 25 -10.9829 53.9749 7 2 272
1976007S11054 1976 2 SI MM CLOTILDE 1976-01-07 12:00:00 TS -10.9909 53.8833 reunion main 489 479 O________OP___ jtwc_sh SH081976 -11.0000 53.9000 -1 -11.0000 53.9000 TC 25 -10.9726 53.8498 7 2 271
1976007S11054 1976 2 SI MM CLOTILDE 1976-01-07 15:00:00 TS -10.9920 53.7466 main 470 460 P________PP___ SH081976 -11.0000 53.7575 -1 -11.0000 53.7575 TC 25 -10.9760 53.7249 7 3 268
1976007S11054 1976 2 SI MM CLOTILDE 1976-01-07 18:00:00 TS -11.0000 53.6000 reunion main 460 451 O________OO___ jtwc_sh SH081976 -11.0000 53.6000 -1 -11.0000 53.6000 TC 25 -11.0000 53.6000 7 3 265
1976007S11054 1976 2 SI MM CLOTILDE 1976-01-07 21:00:00 TS -11.0149 53.4579 main 451 432 P________PP___ SH081976 -11.0000 53.4500 -1 -11.0000 53.4500 TC 25 -11.0446 53.4736 7 3 264
1976007S11054 1976 2 SI MM CLOTILDE 1976-01-08 00:00:00 TS -11.0275 53.3126 reunion main 432 423 O________OP___ jtwc_sh SH081976 -11.0000 53.3000 -1 -11.0000 53.3000 TC 25 -11.0824 53.3378 7 3 264
1976007S11054 1976 2 SI MM CLOTILDE 1976-01-08 03:00:00 TS -11.0463 53.1711 main 423 404 P________PP___ SH081976 -11.0300 53.1651 -1 -11.0300 53.1651 TC 25 -11.0790 53.1831 7 3 275
1976007S11054 1976 2 SI MM CLOTILDE 1976-01-08 06:00:00 TS -11.0000 53.0000 reunion main 404 393 O________OO___ jtwc_sh SH081976 -11.0000 53.0000 -1 -11.0000 53.0000 TC 25 -11.0000 53.0000 7 4 299
1976007S11054 1976 2 SI MM CLOTILDE 1976-01-08 09:00:00 TS -10.8323 52.7708 main 400 382 P________PP___ SH081976 -10.8525 52.7650 -1 -10.8525 52.7650 TC 25 -10.7919 52.7825 7 6 312
1976007S11054 1976 2 SI MM CLOTILDE 1976-01-08 12:00:00 TS -10.5700 52.5124 reunion main 382 375 O________OP___ jtwc_sh SH081976 -10.6000 52.5000 -1 -10.6000 52.5000 TC 25 -10.5100 52.5371 7 8 320
1976007S11054 1976 2 SI MM CLOTILDE 1976-01-08 15:00:00 TS -10.2377 52.2627 main 387 375 P________PP___ SH081976 -10.2575 52.2575 -1 -10.2575 52.2575 TC 25 -10.1981 52.2732 7 8 323
1976007S11054 1976 2 SI MM CLOTILDE 1976-01-08 18:00:00 TS -9.90000 52.0000 reunion main 383 383 O________OO___ jtwc_sh SH081976 -9.90000 52.0000 -1 -9.90000 52.0000 TC 25 -9.90000 52.0000 7 9 321
1976007S11054 1976 2 SI MM CLOTILDE 1976-01-08 21:00:00 TS -9.53201 51.6782 main 391 384 P________PP___ SH081976 -9.62001 51.7000 -1 -9.62001 51.7000 TC 25 -9.62566 51.7199 7 8 323
1976007S11054 1976 2 SI MM CLOTILDE 1976-01-09 00:00:00 TS -9.29501 51.5337 reunion main 395 395 O____O___OP_O_ jtwc_sh SH081976 -9.40000 51.4000 -1 -9.00000 51.9000 99 9.90000 -9.40000 51.4000 TC 25 -9.38006 51.4348 7 -9.00000 51.9000 TC 35 5 328
1976007S11054 1976 2 SI MM CLOTILDE 1976-01-09 03:00:00 TS -9.14761 51.4366 main 407 400 P____P___PP_P_ SH081976 -9.20498 51.1350 -1 -9.03757 51.9526 99 -9.20498 51.1350 TC 25 -9.19441 51.1573 7 -9.03757 51.9526 TC 35 2 309
1976007S11054 1976 2 SI MM CLOTILDE 1976-01-09 06:00:00 TS -9.14000 51.3400 reunion main 400 376 O____O___OO_O_ jtwc_sh SH081976 -9.10000 50.9000 -1 -9.20000 52.0000 3 9.90000 -9.10000 50.9000 TC 25 -9.10000 50.9000 7 -9.20000 52.0000 TC 35 3 237
1976007S11054 1976 2 SI MM CLOTILDE 1976-01-09 09:00:00 TS -9.28776 51.2154 main 376 345 P____P___PP_P_ SH081976 -9.09748 50.6925 -1 -9.56230 52.0048 3 -9.09748 50.6925 TC 25 -9.11926 50.6827 7 -9.56230 52.0048 TC 35 5 220
1976007S11054 1976 2 SI MM CLOTILDE 1976-01-09 12:00:00 TS -9.52597 51.0170 reunion main 345 299 O____O___OP_O_ jtwc_sh SH081976 -9.20000 50.5000 -1 -10.0000 51.8000 99 9.90000 -9.20000 50.5000 TC 25 -9.22985 50.4852 7 -10.0000 51.8000 TC 35 7 227
1976007S11054 1976 2 SI MM CLOTILDE 1976-01-09 15:00:00 TS -9.78612 50.6811 main 299 259 P____P___PP_P_ SH081976 -9.37749 50.3000 -1 -10.3876 51.2552 99 -9.37749 50.3000 TC 25 -9.40052 50.2951 7 -10.3876 51.2552 TC 35 9 235
1976007S11054 1976 2 SI MM CLOTILDE 1976-01-09 18:00:00 TS -10.0400 50.2600 reunion main 259 219 O____O___OO_O_ jtwc_sh SH081976 -9.60000 50.1000 -1 -10.7000 50.5000 99 9.90000 -9.60000 50.1000 TC 25 -9.60000 50.1000 1 -10.7000 50.5000 TC 35 10 243
1976007S11054 1976 2 SI MM CLOTILDE 1976-01-09 21:00:00 TS -10.2141 49.8203 main 219 190 P____P___PP_P_ SH081976 -9.79997 49.9075 -1 -10.8502 49.6921 99 -9.79997 49.9075 TC 25 -9.77019 49.9023 1 -10.8502 49.6921 TC 35 9 248
1976007S11054 1976 2 SI MM CLOTILDE 1976-01-10 00:00:00 TS -10.3925 49.3789 reunion main 190 168 O____O___OP_O_ jtwc_sh SH081976 -10.0000 49.7000 -1 -11.0000 48.9000 99 9.90000 -10.0000 49.7000 TC 25 -9.96230 49.6947 1 -11.0000 48.9000 TC 35 9 242
1976007S11054 1976 2 SI MM CLOTILDE 1976-01-10 03:00:00 TS -10.6546 48.9691 main 158 145 P____P___PP_P_ SH081976 -10.1925 49.4650 -1 -11.3574 48.2253 99 -10.1925 49.4650 TC 25 -10.1733 49.4648 1 -11.3574 48.2253 TC 35 9 235
1976007S11054 1976 2 SI MM CLOTILDE 1976-01-10 06:00:00 TS -10.9200 48.6000 reunion main 149 141 O____O___OO_O_ jtwc_sh SH081976 -10.4000 49.2000 -1 -11.7000 47.7000 3 9.90000 -10.4000 49.2000 TC 25 -10.4000 49.2000 1 -11.7000 47.7000 TC 35 8 235
1976007S11054 1976 2 SI MM CLOTILDE 1976-01-10 09:00:00 TS -11.1253 48.2815 main 148 148 P____P___PP_P_ SH081976 -10.6424 48.9224 -1 -11.8448 47.3323 3 -10.6424 48.9224 TC 25 -10.6518 48.8982 1 -11.8448 47.3323 TC 35 7 237
1976007S11054 1976 2 SI MM CLOTILDE 1976-01-10 12:00:00 TS -11.3030 47.9920 reunion main 156 156 O____O___OP_O_ jtwc_sh SH081976 -10.9000 48.6000 -1 -11.9000 47.1000 99 9.90000 -10.9000 48.6000 TC 25 -10.9149 48.5601 1 -11.9000 47.1000 TC 35 7 238
1976007S11054 1976 2 SI MM CLOTILDE 1976-01-10 15:00:00 TS -11.4831 47.7074 main 163 163 P____P___PP_P_ SH081976 -11.1650 48.2150 -1 -11.9574 46.9574 99 -11.1650 48.2150 TC 25 -11.1705 48.1919 1 -11.9574 46.9574 TC 35 7 240
1976007S11054 1976 2 SI MM CLOTILDE 1976-01-10 18:00:00 TS -11.6400 47.4000 reunion main 182 176 O____O___OO_O_ jtwc_sh SH081976 -11.4000 47.8000 -1 -12.0000 46.8000 99 9.90000 -11.4000 47.8000 TC 25 -11.4000 47.8000 1 -12.0000 46.8000 TC 35 7 249
1976007S11054 1976 2 SI MM CLOTILDE 1976-01-10 21:00:00 TS -11.7428 47.0165 main 215 210 P____P___PP_P_ SH081976 -11.5649 47.4074 -1 -12.0126 46.4499 99 -11.5649 47.4074 TC 25 -11.5587 47.3678 1 -12.0126 46.4499 TC 37 8 254
1976007S11054 1976 2 SI MM CLOTILDE 1976-01-11 00:00:00 TS -11.8586 46.6239 reunion main 243 243 O____O___OP_O_ jtwc_sh SH081976 -11.7000 47.0000 -1 -12.1000 46.1000 99 9.90000 -11.7000 47.0000 TC 25 -11.6928 46.9196 1 -12.1000 46.1000 TC 40 8 246
1976007S11054 1976 2 SI MM CLOTILDE 1976-01-11 03:00:00 TS -12.0571 46.2793 main 249 249 P____P___PP_P_ SH081976 -11.8351 46.5349 -1 -12.3924 45.9200 99 -11.8351 46.5349 TC 25 -11.8306 46.4866 1 -12.3924 45.9200 TC 42 8 236
1976007S11054 1976 2 SI MM CLOTILDE 1976-01-11 06:00:00 TS -12.2800 45.9800 reunion main 258 258 O____O___OO_O_ jtwc_sh SH081976 -12.0000 46.1000 -1 -12.7000 45.8000 3 9.90000 -12.0000 46.1000 TC 25 -12.0000 46.1000 1 -12.7000 45.8000 TC 45 7 233
1976007S11054 1976 2 SI MM CLOTILDE 1976-01-11 09:00:00 TS -12.4707 45.7086 main 273 273 P____P___PP_P_ SH081976 -12.2274 45.7625 -1 -12.8300 45.6275 3 -12.2274 45.7625 TC 25 -12.2389 45.7633 1 -12.8300 45.6275 TC 47 6 231
1976007S11054 1976 2 SI MM CLOTILDE 1976-01-11 12:00:00 TS -12.6625 45.4961 reunion main 283 283 O____O___OP_O_ jtwc_sh SH081976 -12.5000 45.5000 -1 -12.9000 45.5000 99 9.90000 -12.5000 45.5000 TC 25 -12.5123 45.4803 1 -12.9000 45.5000 TC 50 5 222
1976007S11054 1976 2 SI MM CLOTILDE 1976-01-11 15:00:00 TS -12.8719 45.3414 main 295 289 P____P___PP_P_ SH081976 -12.8000 45.2700 -1 -12.9775 45.4550 99 -12.8000 45.2700 TC 30 -12.8046 45.2571 1 -12.9775 45.4550 TC 52 5 208
1976007S11054 1976 2 SI MM CLOTILDE 1976-01-11 18:00:00 TS -13.1000 45.2600 reunion main 289 279 O____O___OO_O_ jtwc_sh SH081976 -13.1000 45.1000 -1 -13.1000 45.5000 99 9.90000 -13.1000 45.1000 TC 35 -13.1000 45.1000 2 -13.1000 45.5000 TC 55 5 192
1976007S11054 1976 2 SI MM CLOTILDE 1976-01-11 21:00:00 TS -13.3615 45.2361 main 269 245 P____P___PP_P_ SH081976 -13.3500 44.9625 -1 -13.3500 45.6349 99 -13.3500 44.9625 TC 35 -13.4073 44.9857 2 -13.3500 45.6349 TC 57 5 0
1976007S11054 1976 2 SI MM CLOTILDE 1976-01-12 00:00:00 TS -13.6220 45.2674 reunion main 245 227 O____O___OP_O_ jtwc_sh SH081976 -13.6000 44.9000 -1 -13.6000 45.8000 99 9.90000 -13.6000 44.9000 TC 35 -13.7098 44.9372 2 -13.6000 45.8000 TC 60 5 171
1976007S11054 1976 2 SI MM CLOTILDE 1976-01-12 03:00:00 TS -13.8545 45.3200 main 218 203 P____P___PP_P_ SH081976 -13.9225 44.9199 -1 -13.7225 45.9076 99 -13.9225 44.9199 TC 35 -13.9824 44.9451 2 -13.7225 45.9076 TC 60 4 162
1976007S11054 1976 2 SI MM CLOTILDE 1976-01-12 06:00:00 TS -14.0400 45.4000 reunion main 203 179 O____O___OO_O_ jtwc_sh SH081976 -14.2000 45.0000 -1 -13.8000 46.0000 4 9.90000 -14.2000 45.0000 TC 35 -14.2000 45.0000 2 -13.8000 46.0000 TC 60 3 151
1976007S11054 1976 2 SI MM CLOTILDE 1976-01-12 09:00:00 TS -14.1599 45.4910 main 179 172 P____P___PP_P_ SH081976 -14.3375 45.0850 -1 -13.9000 46.1075 4 -14.3375 45.0850 TC 35 -14.3243 45.0697 2 -13.9000 46.1075 TC 62 3 137
1976007S11054 1976 2 SI MM CLOTILDE 1976-01-12 12:00:00 TS -14.2390 45.5965 reunion main 172 156 O____O___OP_O_ jtwc_sh SH081976 -14.4000 45.2000 -1 -14.0000 46.2000 99 9.90000 -14.4000 45.2000 TC 35 -14.3950 45.1826 2 -14.0000 46.2000 TC 65 2 125
1976007S11054 1976 2 SI MM CLOTILDE 1976-01-12 15:00:00 TS -14.2996 45.6999 main 156 141 P____P___PP_P_ SH081976 -14.4500 45.3275 -1 -14.0775 46.2575 99 -14.4500 45.3275 TC 35 -14.4431 45.3292 2 -14.0775 46.2575 TC 62 3 123
1976007S11054 1976 2 SI MM CLOTILDE 1976-01-12 18:00:00 TS -14.3800 45.8200 reunion main 141 119 O____O___OO_O_ jtwc_sh SH081976 -14.5000 45.5000 -1 -14.2000 46.3000 99 9.90000 -14.5000 45.5000 TC 35 -14.5000 45.5000 2 -14.2000 46.3000 TC 60 4 130
1976007S11054 1976 2 SI MM CLOTILDE 1976-01-12 21:00:00 TS -14.5324 45.9884 main 119 95 P____P___PP_P_ SH081976 -14.5851 45.7500 -1 -14.4425 46.3575 99 -14.5851 45.7500 TC 35 -14.6068 45.7270 2 -14.4425 46.3575 TC 60 5 135
1976007S11054 1976 2 SI MM CLOTILDE 1976-01-13 00:00:00 TS -14.7056 46.1534 reunion main 89 74 O____O___OP_O_ jtwc_sh SH081976 -14.7000 46.0000 -1 -14.7000 46.4000 99 9.90000 -14.7000 46.0000 TC 35 -14.7278 45.9671 2 -14.7000 46.4000 TC 60 4 139
1976007S11054 1976 2 SI MM CLOTILDE 1976-01-13 03:00:00 TS -14.8490 46.2757 main 74 55 P____P___PP_P_ SH081976 -14.8425 46.1950 -1 -14.8500 46.4075 99 -14.8425 46.1950 TC 35 -14.8598 46.1738 2 -14.8500 46.4075 TC 60 3 149
1976007S11054 1976 2 SI MM CLOTILDE 1976-01-13 06:00:00 TS -15.0000 46.3400 reunion main 55 39 O____O___OO_O_ jtwc_sh SH081976 -15.0000 46.3000 -1 -15.0000 46.4000 3 9.90000 -15.0000 46.3000 TC 35 -15.0000 46.3000 2 -15.0000 46.4000 TC 60 3 168
1976007S11054 1976 2 SI MM CLOTILDE 1976-01-13 09:00:00 TS -15.1885 46.3429 main 39 24 P____P___PP_P_ SH081976 -15.1500 46.2950 -1 -15.2500 46.4150 3 -15.1500 46.2950 TC 35 -15.1427 46.2946 2 -15.2500 46.4150 TC 52 4 189
1976007S11054 1976 2 SI MM CLOTILDE 1976-01-13 12:00:00 TS -15.3785 46.2810 reunion main 24 24 O____O___OP_O_ jtwc_sh SH081976 -15.3000 46.2000 -1 -15.5000 46.4000 99 9.90000 -15.3000 46.2000 TC 35 -15.2924 46.2052 2 -15.5000 46.4000 TC 45 4 207
1976007S11054 1976 2 SI MM CLOTILDE 1976-01-13 15:00:00 TS -15.5352 46.1647 main 24 11 P____P___PP_P_ SH081976 -15.4500 46.0650 -1 -15.6650 46.3150 99 -15.4500 46.0650 TC 35 -15.4459 46.0633 2 -15.6650 46.3150 TC 42 4 220
1976007S11054 1976 2 SI MM CLOTILDE 1976-01-13 18:00:00 TS -15.6800 46.0200 reunion main 11 10 O____O___OO_O_ jtwc_sh SH081976 -15.6000 45.9000 -1 -15.8000 46.2000 99 9.90000 -15.6000 45.9000 TC 35 -15.6000 45.9000 2 -15.8000 46.2000 TC 40 4 226
1976007S11054 1976 2 SI MM CLOTILDE 1976-01-13 21:00:00 TS -15.8066 45.8713 main 10 0 P____P___PP_P_ SH081976 -15.7500 45.7500 -1 -15.9200 46.0925 99 -15.7500 45.7500 TC 35 -15.6931 45.6718 2 -15.9200 46.0925 TC 37 4 225
1976007S11054 1976 2 SI MM CLOTILDE 1976-01-14 00:00:00 TS -15.9590 45.7288 reunion main 0 0 O____O___OP_O_ jtwc_sh SH081976 -15.9000 45.6000 -1 -16.1000 46.0000 99 9.90000 -15.9000 45.6000 TC 35 -15.7948 45.4442 2 -16.1000 46.0000 TC 35 4 219
1976007S11054 1976 2 SI MM CLOTILDE 1976-01-14 03:00:00 TS -16.1508 45.5830 main 0 0 P____P___PP_P_ SH081976 -16.0125 45.3902 -1 -16.3900 45.9201 99 -16.0125 45.3902 TC 35 -15.9491 45.2944 2 -16.3900 45.9201 TC 32 5 201
1976007S11054 1976 2 SI MM CLOTILDE 1976-01-14 06:00:00 TS -16.4400 45.5400 reunion main 0 0 O____O___OO_O_ jtwc_sh SH081976 -16.2000 45.3000 -1 -16.8000 45.9000 3 9.90000 -16.2000 45.3000 TC 35 -16.2000 45.3000 2 -16.8000 45.9000 TC 30 7 175
1976007S11054 1976 2 SI MM CLOTILDE 1976-01-14 09:00:00 TS -16.8680 45.6439 main 0 0 P____P___PP_P_ SH081976 -16.5323 45.4379 -1 -17.3422 45.9104 3 -16.5323 45.4379 TC 35 -16.5912 45.5230 2 -17.3422 45.9104 TC 30 10 158
1976007S11054 1976 2 SI MM CLOTILDE 1976-01-14 12:00:00 TS -17.3760 45.9420 reunion main 0 0 O____O___OP_O_ jtwc_sh SH081976 -17.0000 45.8000 -1 -17.9000 46.1000 99 9.90000 -17.0000 45.8000 TC 35 -17.0798 45.9101 2 -17.9000 46.1000 TC 30 13 143
1976007S11054 1976 2 SI MM CLOTILDE 1976-01-14 15:00:00 TS -17.8767 46.4346 main 0 0 P____P___PP_P_ SH081976 -17.5776 46.3323 -1 -18.2999 46.5455 99 -17.5776 46.3323 TC 35 -17.6286 46.4172 2 -18.2999 46.5455 TC 30 15 133
1976007S11054 1976 2 SI MM CLOTILDE 1976-01-14 18:00:00 TS -18.4000 47.0800 reunion main 0 0 O____O___OO_O_ jtwc_sh SH081976 -18.2000 47.0000 -1 -18.7000 47.2000 99 9.90000 -18.2000 47.0000 TC 35 -18.2000 47.0000 2 -18.7000 47.2000 TC 30 17 130
1976007S11054 1976 2 SI MM CLOTILDE 1976-01-14 21:00:00 TS -18.9526 47.7966 main 0 0 P____P___PP_P_ SH081976 -18.7576 47.7002 -1 -19.2353 47.9772 99 -18.7576 47.7002 TC 35 -18.7774 47.6279 2 -19.2353 47.9772 TC 32 18 129
1976007S11054 1976 2 SI MM CLOTILDE 1976-01-15 00:00:00 TS -19.5124 48.5424 reunion main 0 0 O____O___OP_O_ jtwc_sh SH081976 -19.3000 48.4000 -1 -19.8000 48.8000 99 9.90000 -19.3000 48.4000 TC 35 -19.3618 48.3120 2 -19.8000 48.8000 TC 35 18 130
1976007S11054 1976 2 SI MM CLOTILDE 1976-01-15 03:00:00 TS -20.0849 49.2369 main 43 43 P____P___PP_P_ SH081976 -19.8799 49.0449 -1 -20.3749 49.5521 99 -19.8799 49.0449 TC 35 -19.9151 48.9904 2 -20.3749 49.5521 TC 32 16 131
1976007S11054 1976 2 SI MM CLOTILDE 1976-01-15 06:00:00 TS -20.5600 49.8400 reunion main 123 123 O____O___OO_O_ jtwc_sh SH081976 -20.4000 49.6000 -1 -20.8000 50.2000 2 9.90000 -20.4000 49.6000 TC 35 -20.4000 49.6000 2 -20.8000 50.2000 TC 30 13 126
1976007S11054 1976 2 SI MM CLOTILDE 1976-01-15 09:00:00 TS -20.8274 50.3137 main 179 179 P____P___PP_P_ SH081976 -20.7947 50.0380 -1 -20.8947 50.7260 2 -20.7947 50.0380 TC 35 -20.7580 50.0407 2 -20.8947 50.7260 TC 30 9 120
1976007S11054 1976 2 SI MM CLOTILDE 1976-01-15 12:00:00 TS -21.0101 50.6813 reunion main 226 226 O____O___OP_O_ jtwc_sh SH081976 -21.1000 50.4000 -1 -20.9000 51.1000 99 9.90000 -21.1000 50.4000 TC 35 -21.0503 50.4063 2 -20.9000 51.1000 TC 30 7 122
1976007S11054 1976 2 SI MM CLOTILDE 1976-01-15 15:00:00 TS -21.2223 50.9780 main 264 264 P____P___PP_P_ SH081976 -21.3422 50.7356 -1 -21.0548 51.3376 99 -21.3422 50.7356 TC 35 -21.3176 50.7435 2 -21.0548 51.3376 TC 30 7 131
1976007S11054 1976 2 SI MM CLOTILDE 1976-01-15 18:00:00 TS -21.4800 51.2600 reunion main 305 305 O____O___OO_O_ jtwc_sh SH081976 -21.6000 51.1000 -1 -21.3000 51.5000 99 9.90000 -21.6000 51.1000 TC 35 -21.6000 51.1000 2 -21.3000 51.5000 TC 30 9 136
1976007S11054 1976 2 SI MM CLOTILDE 1976-01-15 21:00:00 TS -21.8377 51.6243 main 343 343 P____P___PP_P_ SH081976 -21.9851 51.5848 -1 -21.6199 51.6852 99 -21.9851 51.5848 TC 30 -21.9784 51.5817 2 -21.6199 51.6852 TC 30 10 137
1976007S11054 1976 2 SI MM CLOTILDE 1976-01-16 00:00:00 TS -22.2347 52.0172 reunion main 352 332 O____O___OP_O_ jtwc_sh SH081976 -22.4000 52.1000 -1 -22.0000 51.9000 99 9.90000 -22.4000 52.1000 TC 25 -22.3734 52.0859 2 -22.0000 51.9000 TC 30 11 137
1976007S11054 1976 2 SI MM CLOTILDE 1976-01-16 03:00:00 TS -22.6383 52.4263 main 332 313 P____P___PP_P_ SH081976 -22.7800 52.5875 -1 -22.4376 52.1922 99 -22.7800 52.5875 TC 25 -22.7566 52.5723 2 -22.4376 52.1922 TC 32 10 136
1976007S11054 1976 2 SI MM CLOTILDE 1976-01-16 06:00:00 TS -22.9800 52.8000 reunion main 319 310 O____O___OO_O_ jtwc_sh SH081976 -23.1000 53.0000 -1 -22.8000 52.5000 3 9.90000 -23.1000 53.0000 TC 25 -23.1000 53.0000 1 -22.8000 52.5000 TC 35 8 131
1976007S11054 1976 2 SI MM CLOTILDE 1976-01-16 09:00:00 TS -23.1683 53.0786 main 310 302 P____P___PP_P_ SH081976 -23.3148 53.2804 -1 -22.9224 52.7579 3 -23.3148 53.2804 TC 25 -23.3673 53.3161 1 -22.9224 52.7579 TC 35 6 126
1976007S11054 1976 2 SI MM CLOTILDE 1976-01-16 12:00:00 TS -23.3188 53.3139 reunion main 303 303 O____O___OP_O_ jtwc_sh SH081976 -23.5000 53.5000 -1 -23.0000 53.0000 99 9.90000 -23.5000 53.5000 TC 25 -23.5939 53.5692 1 -23.0000 53.0000 TC 35 6 131
1976007S11054 1976 2 SI MM CLOTILDE 1976-01-16 15:00:00 TS -23.5537 53.5545 main 310 310 P____P___PP_P_ SH081976 -23.7500 53.7500 -1 -23.2349 53.2425 99 -23.7500 53.7500 TC 25 -23.7987 53.7877 1 -23.2349 53.2425 TC 35 7 137
1976007S11054 1976 2 SI MM CLOTILDE 1976-01-16 18:00:00 TS -23.8000 53.8000 reunion main 319 314 O____O___OO_O_ jtwc_sh SH081976 -24.0000 54.0000 -1 -23.5000 53.5000 99 9.90000 -24.0000 54.0000 TC 25 -24.0000 54.0000 1 -23.5000 53.5000 TC 35 6 134
1976007S11054 1976 2 SI MM CLOTILDE 1976-01-16 21:00:00 TS -23.9918 54.0576 main 325 325 P____P___PP_P_ SH081976 -24.2000 54.2502 -1 -23.6773 53.7705 99 -24.2000 54.2502 TC 25 -24.2045 54.2466 1 -23.6773 53.7705 TC 35 6 129
1976007S11054 1976 2 SI MM CLOTILDE 1976-01-17 00:00:00 TS -24.2025 54.3387 reunion main 339 336 O____O___OP_O_ jtwc_sh SH081976 -24.4000 54.5000 -1 -23.9000 54.1000 99 9.90000 -24.4000 54.5000 TC 25 -24.4123 54.4934 1 -23.9000 54.1000 TC 35 7 132
1976007S11054 1976 2 SI MM CLOTILDE 1976-01-17 03:00:00 TS -24.4958 54.6626 main 358 358 P____P___PP_P_ SH081976 -24.6350 54.7501 -1 -24.2851 54.5346 99 -24.6350 54.7501 TC 30 -24.6389 54.7436 1 -24.2851 54.5346 TC 35 9 136
1976007S11054 1976 2 SI MM CLOTILDE 1976-01-17 06:00:00 MX -24.8200 55.0000 reunion main 384 384 O____O___OO_O_ jtwc_sh SH081976 -24.9000 55.0000 -1 -24.7000 55.0000 5 9.90000 -24.9000 55.0000 TC 35 -24.9000 55.0000 2 -24.7000 55.0000 EX 35 9 136
1976007S11054 1976 2 SI MM CLOTILDE 1976-01-17 09:00:00 MX -25.1129 55.3234 main 414 414 P____P___PP_P_ SH081976 -25.1774 55.2427 -1 -25.0000 55.4378 5 -25.1774 55.2427 TC 35 -25.2098 55.2560 2 -25.0000 55.4378 EX 35 8 137
1976007S11054 1976 2 SI MM CLOTILDE 1976-01-17 12:00:00 MX -25.4309 55.6241 reunion main 447 447 O____O___OP_O_ jtwc_sh SH081976 -25.5000 55.5000 -1 -25.3000 55.8000 99 9.90000 -25.5000 55.5000 TC 35 -25.5546 55.5206 2 -25.3000 55.8000 EX 35 9 144
1976007S11054 1976 2 SI MM CLOTILDE 1976-01-17 15:00:00 MX -25.8153 55.8802 main 492 492 P____P___PP_P_ SH081976 -25.8849 55.7851 -1 -25.6922 56.0154 99 -25.8849 55.7851 TC 35 -25.9222 55.8000 2 -25.6922 56.0154 EX 35 9 149
1976007S11054 1976 2 SI MM CLOTILDE 1976-01-17 18:00:00 MX -26.2200 56.1400 reunion main 538 538 O____O___OO_O_ jtwc_sh SH081976 -26.3000 56.1000 -1 -26.1000 56.2000 99 9.90000 -26.3000 56.1000 TC 35 -26.3000 56.1000 2 -26.1000 56.2000 EX 35 10 147
1976007S11054 1976 2 SI MM CLOTILDE 1976-01-17 21:00:00 MX -26.6116 56.4652 main 588 588 P____P___PP_P_ SH081976 -26.7075 56.4426 -1 -26.4651 56.4925 99 -26.7075 56.4426 TC 35 -26.7129 56.4557 2 -26.4651 56.4925 EX 35 10 142
1976007S11054 1976 2 SI MM CLOTILDE 1976-01-18 00:00:00 MX -26.9851 56.8056 reunion main 637 637 O____O___OP_O_ jtwc_sh SH081976 -27.1000 56.8000 -1 -26.8000 56.8000 99 9.90000 -27.1000 56.8000 TC 35 -27.1256 56.8282 2 -26.8000 56.8000 EX 35 9 141
1976007S11054 1976 2 SI MM CLOTILDE 1976-01-18 03:00:00 MX -27.3441 57.1294 main 676 676 P____P___PP_P_ SH081976 -27.4875 57.1724 -1 -27.1224 57.0576 99 -27.4875 57.1724 TC 35 -27.5004 57.1869 2 -27.1224 57.0576 EX 35 9 140
1976007S11054 1976 2 SI MM CLOTILDE 1976-01-18 06:00:00 MX -27.6400 57.4200 reunion main 716 716 O____O___OO_O_ jtwc_sh SH081976 -27.8000 57.5000 -1 -27.4000 57.3000 5 9.90000 -27.8000 57.5000 TC 35 -27.8000 57.5000 2 -27.4000 57.3000 EX 35 7 137
1976007S11054 1976 2 SI MM CLOTILDE 1976-01-18 09:00:00 MX -27.8448 57.6491 main 743 743 P____P___PP_P_ SH081976 -27.9949 57.7303 -1 -27.6299 57.5351 5 -27.9949 57.7303 TC 35 -27.9743 57.7147 2 -27.6299 57.5351 EX 35 5 131
1976007S11054 1976 2 SI MM CLOTILDE 1976-01-18 12:00:00 MX -27.9748 57.8564 reunion main 773 773 O____O___OP_O_ jtwc_sh SH081976 -28.1000 57.9000 -1 -27.8000 57.8000 99 9.90000 -28.1000 57.9000 TC 35 -28.0741 57.8819 2 -27.8000 57.8000 EX 35 4 119
1976007S11054 1976 2 SI MM CLOTILDE 1976-01-18 15:00:00 MX -28.0564 58.0807 main 789 789 P____P___PP_P_ SH081976 -28.1574 58.0427 -1 -27.9151 58.1426 99 -28.1574 58.0427 TC 35 -28.1369 58.0331 2 -27.9151 58.1426 EX 35 4 110
1976007S11054 1976 2 SI MM CLOTILDE 1976-01-18 18:00:00 MX -28.1200 58.3200 reunion main 796 796 O____O___OO_O_ jtwc_sh SH081976 -28.2000 58.2000 -1 -28.0000 58.5000 99 9.90000 -28.2000 58.2000 TC 35 -28.2000 58.2000 2 -28.0000 58.5000 EX 35 5 108
1976007S11054 1976 2 SI MM CLOTILDE 1976-01-18 21:00:00 MX -28.2037 58.5845 main 817 817 P____P___PP_P_ SH081976 -28.2850 58.4350 -1 -28.0774 58.8078 99 -28.2850 58.4350 TC 35 -28.2936 58.4369 2 -28.0774 58.8078 EX 35 5 113
1976007S11054 1976 2 SI MM CLOTILDE 1976-01-19 00:00:00 MX -28.3195 58.8586 reunion main 839 839 O____O___OP_O_ jtwc_sh SH081976 -28.4000 58.7000 -1 -28.2000 59.1000 99 9.90000 -28.4000 58.7000 TC 35 -28.3977 58.6930 2 -28.2000 59.1000 EX 35 6 120
1976007S11054 1976 2 SI MM CLOTILDE 1976-01-19 03:00:00 MX -28.4936 59.1484 main 867 867 P____P___PP_P_ SH081976 -28.5275 58.9576 -1 -28.4426 59.4371 99 -28.5275 58.9576 TC 35 -28.5279 58.9526 2 -28.4426 59.4371 EX 35 6 129
1976007S11054 1976 2 SI MM CLOTILDE 1976-01-19 06:00:00 MX -28.7000 59.4000 reunion main 900 900 O____O___OO_O_ jtwc_sh SH081976 -28.7000 59.2000 -1 -28.7000 59.7000 5 9.90000 -28.7000 59.2000 TC 35 -28.7000 59.2000 2 -28.7000 59.7000 EX 35 5 138
1976007S11054 1976 2 SI MM CLOTILDE 1976-01-19 09:00:00 MX -28.8964 59.5565 main 929 929 P____P___PP_P_ SH081976 -28.9274 59.4076 -1 -28.8499 59.7803 5 -28.9274 59.4076 TC 35 -28.9275 59.4065 2 -28.8499 59.7803 EX 35 5 150
1976007S11054 1976 2 SI MM CLOTILDE 1976-01-19 12:00:00 MX -29.1194 59.6801 reunion main 953 953 O____O___OP_O_ jtwc_sh SH081976 -29.2000 59.6000 -1 -29.0000 59.8000 99 9.90000 -29.2000 59.6000 TC 35 -29.1971 59.6004 2 -29.0000 59.8000 EX 35 6 154
1976007S11054 1976 2 SI MM CLOTILDE 1976-01-19 15:00:00 MX -29.3896 59.8388 main 987 987 P____P___PP_P_ SH081976 -29.4924 59.7926 -1 -29.2350 59.9074 99 -29.4924 59.7926 TC 35 -29.4932 59.7942 2 -29.2350 59.9074 EX 35 6 153
1976007S11054 1976 2 SI MM CLOTILDE 1976-01-19 18:00:00 MX -29.6800 60.0000 reunion main 1026 1026 O____O___OO_O_ jtwc_sh SH081976 -29.8000 60.0000 -1 -29.5000 60.0000 99 9.90000 -29.8000 60.0000 TC 35 -29.8000 60.0000 2 -29.5000 60.0000 EX 35 6 155
1976007S11054 1976 2 SI MM CLOTILDE 1976-01-19 21:00:00 MX -29.9563 60.1486 main 1060 1060 P____P___PP_P_ SH081976 -30.1000 60.2426 -1 -29.7425 60.0151 99 -30.1000 60.2426 TC 35 -30.0967 60.2278 2 -29.7425 60.0151 EX 35 7 154
1976007S11054 1976 2 SI MM CLOTILDE 1976-01-20 00:00:00 MX -30.2666 60.3268 reunion main 1099 1099 O____O___OP_O_ jtwc_sh SH081976 -30.4000 60.5000 -1 -30.0000 60.0000 99 9.90000 -30.4000 60.5000 TC 35 -30.3998 60.4704 2 -30.0000 60.0000 EX 35 7 152
1976007S11054 1976 2 SI MM CLOTILDE 1976-01-20 03:00:00 MX -30.6019 60.5520 main 1142 1142 P____P___PP_P_ SH081976 -30.7074 60.7427 -1 -30.2900 59.9949 99 -30.7074 60.7427 TC 35 -30.7029 60.7279 2 -30.2900 59.9949 EX 35 8 146
1976007S11054 1976 2 SI MM CLOTILDE 1976-01-20 06:00:00 MX -30.9429 60.8571 reunion main 1185 1185 O____O___OO_O_ jtwc_sh SH081976 -31.0000 61.0000 -1 -30.6000 60.0000 5 9.90000 -31.0000 61.0000 TC 35 -31.0000 61.0000 2 -30.6000 60.0000 EX 35 9 136
1976007S11054 1976 2 SI MM CLOTILDE 1976-01-20 09:00:00 TS -31.2608 61.2945 main 1242 1242 P________PP___ SH081976 -31.2500 61.2927 -1 5 -31.2500 61.2927 TC 35 -31.2823 61.2980 2 EX 9 132
1976007S11054 1976 2 SI MM CLOTILDE 1976-01-20 12:00:00 TS -31.5192 61.6026 main 1275 1275 O________OP___ jtwc_sh SH081976 -31.5000 61.6000 -1 -31.5000 61.6000 TC 35 -31.5577 61.6077 2 8 136
1976007S11054 1976 2 SI MM CLOTILDE 1976-01-20 15:00:00 TS -31.8097 61.9095 main 1318 1318 P________PP___ SH081976 -31.8000 61.9075 -1 -31.8000 61.9075 TC 35 -31.8292 61.9136 2 8 139
1976007S11054 1976 2 SI MM CLOTILDE 1976-01-20 18:00:00 TS -32.1000 62.2000 main 1361 1361 O________OO___ jtwc_sh SH081976 -32.1000 62.2000 -1 -32.1000 62.2000 TC 35 -32.1000 62.2000 2 7 140
1976007S11054 1976 2 SI MM CLOTILDE 1976-01-20 21:00:00 TS -32.3513 62.4541 main 1404 1404 P________PP___ SH081976 -32.3499 62.4653 -1 -32.3499 62.4653 TC 30 -32.3541 62.4319 2 6 141
1976007S11054 1976 2 SI MM CLOTILDE 1976-01-21 00:00:00 TS -32.6039 62.6816 main 1433 1433 O________OP___ jtwc_sh SH081976 -32.6000 62.7000 -1 -32.6000 62.7000 TC 25 -32.6117 62.6448 2 6 146
1976007S11054 1976 2 SI MM CLOTILDE 1976-01-21 03:00:00 TS -32.8861 62.8820 main 1471 1471 P________PP___ SH081976 -32.8848 62.8929 -1 -32.8848 62.8929 TC 25 -32.8885 62.8602 2 7 149
1976007S11054 1976 2 SI MM CLOTILDE 1976-01-21 06:00:00 TS -33.2000 63.1000 main 1510 1510 O________OO___ jtwc_sh SH081976 -33.2000 63.1000 -1 -33.2000 63.1000 TC 25 -33.2000 63.1000 7 8 147
1976007S11054 1976 2 SI MM CLOTILDE 1976-01-21 09:00:00 TS -33.5373 63.3789 main 1553 1553 P________PP___ SH081976 -33.5275 63.3778 -1 -33.5275 63.3778 TC 25 -33.5570 63.3810 7 9 145
1976007S11054 1976 2 SI MM CLOTILDE 1976-01-21 12:00:00 TS -33.9171 63.6995 main 1605 1605 O________OP___ jtwc_sh SH081976 -33.9000 63.7000 -1 -33.9000 63.7000 TC 25 -33.9512 63.6984 7 10 146
1976007S11054 1976 2 SI MM CLOTILDE 1976-01-21 15:00:00 TS -34.3451 64.0433 main 1658 1600 P________PP___ SH081976 -34.3327 64.0441 -1 -34.3327 64.0441 TC 25 -34.3698 64.0417 7 11 147
1976007S11054 1976 2 SI MM CLOTILDE 1976-01-21 18:00:00 TS -34.8000 64.4000 main 1600 O________OO___ jtwc_sh SH081976 -34.8000 64.4000 -1 -34.8000 64.4000 TC 25 -34.8000 64.4000 7 11 147

About IBTrACS Database

This database is a web-friendly format of International Best Track Archive for Climate Stewardship (IBTrACS), a global best track data archive curated by NOAA dating back to 1842.

Updated: 2021-12-06